Latest Weather Observations for St Helens

IDT60801

Issued at 11:02 am EDT Saturday 19 January 2019 (issued every 10 minutes, with the page automatically refreshed every 10 minutes)

About weather observations | Map of weather stations | Latest weather observations for TAS | Other Formats
Station Details ID: 092120 Name: ST HELENS AERODROME Lat: -41.34 Lon: 148.28 Height: 48.0 m
Data from the previous 72 hours. | See also: Recent months at St Helens
Date/Time
EDT
Temp
°C
App
Temp
°C
Dew
Point
°C
Rel
Hum
%
Delta-T
°C
Wind Press
QNH
hPa
Press
MSL
hPa
Rain since
9am
mm
Dir  Spd
km/h
Gust
km/h
Spd
kts
Gust
kts
19/11:00am 20.0 15.9 7.7 45 6.3 ENE 19 24 10 13 1016.1 - 0.0
19/10:30am 19.7 17.4 7.4 45 6.3 N 9 17 5 9 1015.9 - 0.0
19/10:00am 19.0 16.4 6.1 43 6.4 NNW 9 11 5 6 1015.5 - 0.0
19/09:30am 18.6 16.2 7.1 47 5.8 W 9 15 5 8 1015.5 - 0.0
19/09:00am 18.2 15.9 7.3 49 5.5 NW 9 13 5 7 1015.6 1015.4 0.0
19/08:30am 17.2 15.7 8.4 56 4.5 W 6 11 3 6 1015.4 - 0.0
19/08:00am 15.3 13.4 7.6 60 3.8 W 7 13 4 7 1014.7 - 0.0
19/07:30am 14.4 12.6 7.9 65 3.2 NW 7 11 4 6 1014.4 - 0.0
19/07:00am 13.3 11.0 7.5 68 2.8 W 9 13 5 7 1013.8 - 0.0
19/06:30am 12.6 10.7 7.7 72 2.4 W 7 11 4 6 1013.1 - 0.0
19/06:00am 12.9 10.7 8.0 72 2.4 NNW 9 13 5 7 1012.5 1012.2 0.0
19/05:30am 13.1 11.8 7.8 70 2.6 W 4 11 2 6 1012.5 - 0.0
19/05:00am 14.0 12.1 7.5 65 3.2 NW 7 9 4 5 1012.0 - 0.0
19/04:30am 14.1 12.1 7.2 63 3.4 W 7 11 4 6 1011.5 - 0.0
19/04:00am 14.7 12.7 8.6 67 3.1 WSW 9 19 5 10 1010.5 - 0.0
19/03:30am 15.3 12.9 8.5 64 3.4 N 11 13 6 7 1010.4 - 0.0
19/03:00am 15.8 13.8 7.3 57 4.2 SW 7 13 4 7 1009.9 1009.7 0.0
19/02:30am 16.5 14.8 8.5 59 4.1 SW 7 11 4 6 1009.9 - 0.0
19/02:00am 16.7 15.1 8.9 60 4.0 W 7 11 4 6 1009.2 - 0.0
19/01:30am 16.9 15.8 10.7 67 3.3 W 7 15 4 8 1008.8 - 0.0
19/01:00am 17.9 16.5 11.0 64 3.7 WNW 9 15 5 8 1008.1 - 0.0
19/12:30am 18.1 15.6 11.2 64 3.8 NW 15 22 8 12 1007.4 - 0.0
19/12:00am 18.7 15.4 10.8 60 4.3 NW 19 26 10 14 1006.9 1006.8 0.0
 
Date/Time
EDT
Temp
°C
App
Temp
°C
Dew
Point
°C
Rel
Hum
%
Delta-T
°C
Wind Press
QNH
hPa
Press
MSL
hPa
Rain since
9am
mm
Dir  Spd
km/h
Gust
km/h
Spd
kts
Gust
kts
18/11:30pm 18.9 16.4 11.0 60 4.3 NW 15 24 8 13 1006.3 - 0.0
18/11:00pm 19.1 16.0 11.7 62 4.1 NW 19 32 10 17 1005.8 - 0.0
18/10:30pm 19.1 15.9 11.9 63 4.0 NW 20 28 11 15 1005.3 - 0.0
18/10:00pm 19.5 17.2 11.8 61 4.3 W 15 30 8 16 1004.7 - 0.0
18/09:30pm 19.7 17.2 12.2 62 4.2 W 17 28 9 15 1004.0 - 0.0
18/09:00pm 19.8 17.4 12.6 63 4.1 W 17 33 9 18 1003.6 1003.4 0.0
18/08:30pm 20.3 17.2 12.3 60 4.5 W 20 39 11 21 1003.2 - 0.0
18/08:00pm 20.9 17.5 12.6 59 4.7 W 22 41 12 22 1002.9 - 0.0
18/07:30pm 22.0 18.6 11.4 51 5.9 W 20 43 11 23 1002.9 - 0.0
18/07:00pm 22.8 19.9 13.0 54 5.6 W 20 35 11 19 1002.5 - 0.0
18/06:30pm 22.9 20.0 15.0 61 4.7 WNW 24 43 13 23 1002.0 - 0.0
18/06:00pm 23.2 20.5 15.5 62 4.6 W 24 52 13 28 1001.9 1001.8 0.0
18/05:49pm 23.6 20.1 15.4 60 4.9 W 28 48 15 26 1001.9 - 0.0
18/05:30pm 24.7 22.1 15.9 58 5.4 W 24 44 13 24 1002.1 - 0.0
18/05:00pm 25.8 23.5 15.8 54 6.1 W 22 39 12 21 1002.3 - 0.0
18/04:30pm 26.9 25.0 16.8 54 6.3 NW 22 35 12 19 1002.5 - 0.0
18/04:00pm 27.3 26.4 16.9 53 6.5 NW 17 28 9 15 1002.5 - 0.0
18/03:30pm 26.8 25.4 17.0 55 6.1 NW 20 35 11 19 1002.6 - 0.0
18/03:00pm 24.0 24.9 18.4 71 3.5 ENE 11 15 6 8 1003.5 1003.5 0.0
18/02:30pm 22.1 23.2 18.1 78 2.5 SSE 9 17 5 9 1004.6 - 0.0
18/02:00pm 21.7 22.8 17.9 79 2.4 SSE 9 17 5 9 1005.2 - 0.0
18/01:30pm 21.0 21.6 17.6 81 2.1 SSE 11 20 6 11 1005.6 - 0.0
18/01:00pm 22.6 23.0 18.2 76 2.8 ESE 13 22 7 12 1005.5 - 0.0
18/12:30pm 21.4 21.6 16.8 75 2.8 SE 11 20 6 11 1006.3 - 0.0
18/12:00pm 24.2 25.5 18.4 70 3.7 SSE 9 17 5 9 1006.3 1006.2 0.0
18/11:30am 23.2 24.5 17.6 71 3.5 E 7 13 4 7 1006.5 - 0.0
18/11:00am 23.0 23.9 18.5 76 2.8 S 11 19 6 10 1006.6 - 0.0
18/10:30am 20.8 21.1 17.8 83 1.9 SSE 13 24 7 13 1006.7 - 0.0
18/10:00am 21.7 22.3 16.9 74 2.9 SSE 9 20 5 11 1006.5 - 0.0
18/09:30am 24.0 23.8 15.8 60 5.0 W 11 22 6 12 1006.8 - 0.0
18/09:00am 23.5 22.5 16.5 65 4.3 NW 17 24 9 13 1006.7 1006.6 0.4
18/08:30am 23.0 23.4 16.3 66 4.1 W 9 20 5 11 1005.9 - 0.4
18/08:00am 21.9 20.4 16.4 71 3.3 WNW 19 28 10 15 1005.3 - 0.4
18/07:30am 21.2 20.7 16.8 76 2.7 NW 15 22 8 12 1004.7 - 0.4
18/07:00am 21.3 20.3 16.7 75 2.8 NW 17 24 9 13 1004.8 - 0.4
18/06:30am 21.4 20.3 16.4 73 3.0 NW 17 24 9 13 1004.5 - 0.4
18/06:00am 19.4 19.4 18.1 92 0.8 N 15 19 8 10 1005.1 1005.0 0.4
18/05:30am 19.4 19.8 18.1 92 0.8 N 13 20 7 11 1004.9 - 0.4
18/05:00am 19.7 19.7 18.0 90 1.1 N 15 24 8 13 1004.6 - 0.4
18/04:30am 19.8 20.4 17.8 88 1.2 NNE 11 17 6 9 1004.5 - 0.4
18/04:00am 19.9 19.8 17.9 88 1.2 N 15 20 8 11 1004.8 - 0.4
18/03:30am 20.0 20.3 18.0 88 1.2 N 13 20 7 11 1004.6 - 0.4
18/03:00am 20.4 21.7 17.2 82 2.0 NNW 6 11 3 6 1005.0 1004.9 0.4
18/02:30am 20.7 22.4 17.1 80 2.2 SW 4 11 2 6 1005.5 - 0.4
18/02:00am 21.1 22.7 16.9 77 2.6 NW 4 7 2 4 1005.6 - 0.4
18/01:30am 20.9 22.1 15.9 73 3.0 WSW 4 9 2 5 1005.6 - 0.4
18/01:00am 21.2 21.8 15.7 71 3.3 NW 7 9 4 5 1005.5 - 0.4
18/12:30am 21.5 21.3 15.6 69 3.5 NNW 11 15 6 8 1006.0 - 0.4
18/12:00am 21.3 21.6 16.0 72 3.2 NW 9 13 5 7 1006.2 1006.1 0.4
 
Date/Time
EDT
Temp
°C
App
Temp
°C
Dew
Point
°C
Rel
Hum
%
Delta-T
°C
Wind Press
QNH
hPa
Press
MSL
hPa
Rain since
9am
mm
Dir  Spd
km/h
Gust
km/h
Spd
kts
Gust
kts
17/11:30pm 21.6 22.0 16.3 72 3.2 NW 9 11 5 6 1006.5 - 0.4
17/11:00pm 21.8 22.3 16.5 72 3.2 WNW 9 13 5 7 1006.4 - 0.4
17/10:30pm 22.1 21.8 16.4 70 3.5 NNW 13 17 7 9 1006.8 - 0.4
17/10:00pm 22.5 22.6 16.5 69 3.7 NNW 11 15 6 8 1006.9 - 0.4
17/09:30pm 22.3 22.4 16.6 70 3.5 N 11 19 6 10 1006.9 - 0.4
17/09:00pm 22.6 22.2 16.2 67 3.9 N 13 20 7 11 1007.0 1007.0 0.4
17/08:30pm 22.3 22.3 16.3 69 3.6 NNE 11 19 6 10 1006.9 - 0.4
17/08:00pm 22.4 22.3 16.9 71 3.4 NNE 13 19 7 10 1006.6 - 0.4
17/07:30pm 22.5 21.6 16.8 70 3.5 NNE 17 28 9 15 1006.5 - 0.4
17/07:00pm 23.4 21.9 16.7 66 4.1 NNE 20 28 11 15 1006.4 - 0.4
17/06:30pm 24.1 23.1 16.6 63 4.6 NNE 17 24 9 13 1006.5 - 0.4
17/06:00pm 24.8 23.6 16.2 58 5.3 N 17 28 9 15 1006.4 1006.3 0.4
17/05:30pm 24.5 22.4 16.2 60 5.1 NNE 22 33 12 18 1006.7 - 0.4
17/05:00pm 24.1 22.7 17.1 65 4.3 NNE 20 30 11 16 1007.0 - 0.4
17/04:30pm 23.0 20.8 16.8 68 3.8 NNE 24 37 13 20 1007.2 - 0.4
17/04:00pm 22.7 20.9 16.9 70 3.6 N 22 33 12 18 1007.5 - 0.4
17/03:30pm 22.3 20.5 17.0 72 3.3 N 22 35 12 19 1008.1 - 0.4
17/03:00pm 22.4 21.1 18.2 77 2.6 N 22 41 12 22 1008.0 1007.9 0.4
17/02:30pm 22.0 20.8 18.4 80 2.3 N 22 32 12 17 1007.9 - 0.4
17/02:00pm 21.7 20.6 18.7 83 1.9 N 22 32 12 17 1008.1 - 0.4
17/01:56pm 21.8 20.8 18.8 83 1.9 N 22 32 12 17 1008.2 - 0.4
17/01:30pm 21.5 21.2 19.1 86 1.5 N 19 32 10 17 1008.3 - 0.4
17/01:00pm 21.2 20.8 19.3 89 1.2 N 20 30 11 16 1008.5 - 0.4
17/12:42pm 20.8 20.8 18.9 89 1.2 N 17 28 9 15 1008.5 - 0.4
17/12:30pm 20.6 20.0 17.6 83 1.8 N 17 26 9 14 1008.6 - 0.4
17/12:00pm 19.9 19.4 17.7 87 1.4 N 17 24 9 13 1008.7 1008.5 0.4
17/11:30am 19.1 19.5 17.2 89 1.2 N 11 17 6 9 1008.2 - 0.4
17/11:00am 19.2 20.1 17.5 90 1.0 N 9 11 5 6 1008.3 - 0.4
17/10:30am 18.9 19.7 17.2 90 1.0 N 9 17 5 9 1008.8 - 0.4
17/10:00am 18.2 17.9 16.5 90 1.0 NNE 13 19 7 10 1009.5 - 0.4
17/09:30am 17.8 17.7 16.0 89 1.1 NNE 11 13 6 7 1009.8 - 0.4
17/09:00am 18.0 18.9 16.0 88 1.2 WNW 6 9 3 5 1010.3 1010.1 2.4
17/08:30am 17.2 17.4 14.7 85 1.4 S 7 13 4 7 1010.6 - 1.4
17/08:00am 17.9 18.3 15.2 84 1.6 SSE 7 17 4 9 1011.1 - 0.2
17/07:30am 18.4 18.4 15.1 81 1.9 SSE 9 15 5 8 1010.0 - 0.0
17/07:00am 19.4 19.6 12.9 66 3.7 S 4 9 2 5 1009.5 - 0.0
17/06:30am 19.4 19.1 13.3 68 3.5 NW 7 15 4 8 1009.5 - 0.0
17/06:00am 18.8 19.0 14.7 77 2.4 W 7 13 4 7 1009.4 1009.2 0.0
17/05:30am 19.0 18.6 15.3 79 2.2 NNW 11 15 6 8 1008.5 - 0.0
17/05:00am 19.3 18.8 15.0 76 2.5 WNW 11 17 6 9 1007.8 - 0.0
17/04:30am 18.8 18.1 15.5 81 1.9 NW 13 20 7 11 1007.7 - 0.0
17/04:00am 18.6 17.3 15.7 83 1.7 NW 17 26 9 14 1008.3 - 0.0
17/03:30am 18.0 17.9 16.0 88 1.2 NW 11 17 6 9 1008.5 - 0.0
17/03:00am 18.1 18.0 15.9 87 1.3 N 11 17 6 9 1008.9 1008.8 0.0
17/02:30am 18.2 18.2 16.2 88 1.2 NNW 11 15 6 8 1009.5 - 0.0
17/02:00am 18.3 17.9 16.1 87 1.3 NNW 13 19 7 10 1010.3 - 0.0
17/01:30am 18.5 17.7 16.1 86 1.4 NW 15 22 8 12 1011.0 - 0.0
17/01:25am 18.5 17.7 16.1 86 1.4 NW 15 24 8 13 1011.0 - 0.0
17/01:00am 18.8 18.5 16.4 86 1.4 NW 13 22 7 12 1011.4 - 0.0
17/12:55am 18.8 18.9 16.4 86 1.4 NNW 11 19 6 10 1011.6 - 0.0
17/12:30am 18.6 17.8 16.0 85 1.5 N 15 24 8 13 1011.3 - 0.0
17/12:00am 18.4 18.5 15.6 84 1.7 N 9 13 5 7 1011.3 1011.0 0.0
 
Date/Time
EDT
Temp
°C
App
Temp
°C
Dew
Point
°C
Rel
Hum
%
Delta-T
°C
Wind Press
QNH
hPa
Press
MSL
hPa
Rain since
9am
mm
Dir  Spd
km/h
Gust
km/h
Spd
kts
Gust
kts
16/11:30pm 18.4 18.5 15.6 84 1.7 NW 9 15 5 8 1011.8 - 0.0
16/11:00pm 18.4 18.6 15.8 85 1.5 N 9 13 5 7 1011.7 - 0.0
16/10:30pm 18.6 17.4 16.0 85 1.5 N 17 26 9 14 1012.6 - 0.0
16/10:20pm 18.6 17.4 16.2 86 1.4 N 17 28 9 15 1012.9 - 0.0
16/10:00pm 18.6 18.1 16.0 85 1.5 N 13 20 7 11 1012.7 - 0.0
16/09:33pm 18.3 17.1 15.0 81 1.9 NNE 15 24 8 13 1012.6 - 0.0
16/09:30pm 18.2 16.6 14.9 81 1.9 NE 17 24 9 13 1012.3 - 0.0
16/09:00pm 18.3 17.1 15.0 81 1.9 NNE 15 20 8 11 1012.8 1012.6 0.0
16/08:30pm 18.0 17.1 14.9 82 1.8 NE 13 17 7 9 1012.8 - 0.0
16/08:00pm 18.2 18.0 14.7 80 2.0 SSE 9 17 5 9 1011.4 - 0.0
16/07:30pm 18.6 18.9 14.9 79 2.2 SE 7 13 4 7 1011.8 - 0.0
16/07:00pm 18.9 18.5 14.2 74 2.7 E 9 13 5 7 1012.4 - 0.0
16/06:30pm 19.0 18.7 14.3 74 2.7 E 9 13 5 7 1012.7 - 0.0
16/06:00pm 19.3 18.6 14.3 73 2.9 ENE 11 17 6 9 1012.3 1012.1 0.0
16/05:30pm 19.8 19.2 14.6 72 3.0 E 11 17 6 9 1012.5 - 0.0
16/05:00pm 19.0 18.6 14.1 73 2.8 ENE 9 15 5 8 1012.6 - 0.0
16/04:30pm 19.5 19.6 14.5 73 2.9 ESE 7 11 4 6 1012.2 - 0.0
16/04:00pm 19.1 18.7 14.1 73 2.9 E 9 17 5 9 1012.3 - 0.0
16/03:30pm 19.3 18.9 14.1 72 3.0 SE 9 17 5 9 1012.2 - 0.0
16/03:00pm 19.3 19.0 14.3 73 2.9 SE 9 17 5 9 1012.3 1012.1 0.0
16/02:30pm 19.3 17.9 14.6 74 2.7 SE 15 24 8 13 1012.1 - 0.0
16/02:00pm 19.3 17.6 14.8 75 2.6 SE 17 24 9 13 1012.0 - 0.0
16/01:30pm 19.0 18.0 14.7 76 2.5 SE 13 24 7 13 1012.1 - 0.0
16/01:28pm 19.0 18.0 14.7 76 2.5 SSE 13 24 7 13 1012.1 - 0.0
16/01:00pm 19.5 19.0 15.0 75 2.6 SSE 11 20 6 11 1012.0 - 0.0
16/12:30pm 20.0 18.4 15.0 73 2.9 SSE 17 26 9 14 1012.0 - 0.0
16/12:00pm 20.3 19.0 14.9 71 3.2 SE 15 24 8 13 1011.7 1011.5 0.0
16/11:30am 19.8 19.7 15.9 78 2.3 SE 11 22 6 12 1011.6 - 0.0

Other Formats:

Comma delimited format used in spreadsheet applications
http://www.bom.gov.au/fwo/IDT60801/IDT60801.95981.axf

JavaScript Object Notation format (JSON) in row-major order
http://www.bom.gov.au/fwo/IDT60801/IDT60801.95981.json